Time,TemperatureF,DewpointF,PressureIn,WindDirection,WindDirectionDegrees,WindSpeedMPH,WindSpeedGustMPH,Humidity,HourlyPrecipIn,Conditions,Clouds,dailyrainin,SoftwareType,DateUTC
2013-12-15 00:01:00,26.1,22.6,30.23,NNE,23,0.0,0.0,87,0.00,,,0.08,meteohub,2013-12-15 06:01:00,
2013-12-15 00:06:00,26.1,22.6,30.23,NW,315,0.0,0.0,87,0.00,,,0.00,meteohub,2013-12-15 06:06:00,
2013-12-15 00:11:00,26.1,22.6,30.23,West,270,0.0,0.0,87,0.00,,,0.00,meteohub,2013-12-15 06:11:00,
2013-12-15 00:16:00,26.1,22.6,30.23,West,270,0.0,0.0,87,0.00,,,0.00,meteohub,2013-12-15 06:16:00,
2013-12-15 00:21:00,26.1,22.6,30.23,West,270,0.0,0.0,87,0.00,,,0.00,meteohub,2013-12-15 06:21:00,
2013-12-15 00:26:00,26.1,22.6,30.23,West,270,0.0,0.0,87,0.00,,,0.00,meteohub,2013-12-15 06:26:00,
2013-12-15 00:31:00,26.1,22.6,30.23,NNW,338,0.0,0.0,87,0.00,,,0.00,meteohub,2013-12-15 06:31:00,
2013-12-15 00:37:00,26.1,22.6,30.23,WNW,293,0.0,0.0,87,0.00,,,0.00,meteohub,2013-12-15 06:37:00,
2013-12-15 00:42:00,25.9,22.8,30.22,NNW,338,0.0,0.0,88,0.00,,,0.00,meteohub,2013-12-15 06:42:00,
2013-12-15 00:47:00,26.1,22.6,30.22,WSW,248,0.0,0.0,87,0.00,,,0.00,meteohub,2013-12-15 06:47:00,
2013-12-15 00:52:00,25.7,22.5,30.22,NW,315,0.0,0.0,87,0.00,,,0.00,meteohub,2013-12-15 06:52:00,
2013-12-15 00:57:00,25.7,22.5,30.22,South,180,0.0,0.0,87,0.00,,,0.00,meteohub,2013-12-15 06:57:00,
2013-12-15 01:02:00,25.5,22.3,30.22,West,270,0.0,0.0,87,0.00,,,0.00,meteohub,2013-12-15 07:02:00,
2013-12-15 01:07:00,25.3,22.1,30.22,NW,315,0.0,0.0,87,0.00,,,0.00,meteohub,2013-12-15 07:07:00,
2013-12-15 01:12:00,25.3,22.1,30.22,West,270,0.0,0.0,87,0.00,,,0.00,meteohub,2013-12-15 07:12:00,
2013-12-15 01:17:00,25.0,21.7,30.22,WNW,293,0.0,0.0,87,0.00,,,0.00,meteohub,2013-12-15 07:17:00,
2013-12-15 01:22:00,25.0,21.7,30.22,West,270,0.0,0.0,87,0.00,,,0.00,meteohub,2013-12-15 07:22:00,
2013-12-15 01:27:00,24.6,21.4,30.22,West,270,0.0,0.0,87,0.00,,,0.00,meteohub,2013-12-15 07:27:00,
2013-12-15 01:32:00,24.6,21.4,30.22,NW,315,0.0,0.0,87,0.00,,,0.00,meteohub,2013-12-15 07:32:00,
2013-12-15 01:37:00,24.3,21.0,30.22,West,270,0.0,0.0,87,0.00,,,0.00,meteohub,2013-12-15 07:37:00,
2013-12-15 01:42:00,24.1,20.8,30.23,NNW,338,0.0,0.0,87,0.00,,,0.00,meteohub,2013-12-15 07:42:00,
2013-12-15 01:47:00,23.9,20.7,30.23,West,270,0.0,0.0,87,0.00,,,0.00,meteohub,2013-12-15 07:47:00,
2013-12-15 01:52:00,23.9,20.7,30.23,WSW,248,0.0,0.0,87,0.00,,,0.00,meteohub,2013-12-15 07:52:00,
2013-12-15 01:57:00,23.5,20.3,30.23,WSW,248,0.0,0.0,87,0.00,,,0.00,meteohub,2013-12-15 07:57:00,
2013-12-15 02:02:00,23.2,19.9,30.23,SW,225,0.0,0.0,87,0.00,,,0.00,meteohub,2013-12-15 08:02:00,
2013-12-15 02:07:00,23.2,19.9,30.23,SW,225,0.0,0.0,87,0.00,,,0.00,meteohub,2013-12-15 08:07:00,
2013-12-15 02:12:00,22.8,19.6,30.23,SW,225,0.0,0.0,87,0.00,,,0.00,meteohub,2013-12-15 08:12:00,
2013-12-15 02:17:00,22.6,19.4,30.23,SW,225,0.0,0.0,87,0.00,,,0.00,meteohub,2013-12-15 08:17:00,
2013-12-15 02:22:00,22.5,19.2,30.23,WSW,248,0.0,0.0,87,0.00,,,0.00,meteohub,2013-12-15 08:22:00,
2013-12-15 02:27:00,22.5,19.2,30.23,SW,225,0.0,0.0,87,0.00,,,0.00,meteohub,2013-12-15 08:27:00,
2013-12-15 02:32:00,22.1,18.9,30.23,WSW,248,0.0,0.0,87,0.00,,,0.00,meteohub,2013-12-15 08:32:00,
2013-12-15 02:37:00,22.1,18.9,30.23,WSW,248,0.0,0.0,87,0.00,,,0.00,meteohub,2013-12-15 08:37:00,
2013-12-15 02:42:00,21.7,18.5,30.25,WNW,293,0.0,0.0,87,0.00,,,0.00,meteohub,2013-12-15 08:42:00,
2013-12-15 02:47:00,21.7,18.5,30.25,West,270,0.0,0.0,87,0.00,,,0.00,meteohub,2013-12-15 08:47:00,
2013-12-15 02:52:00,21.7,18.5,30.25,WSW,248,0.0,0.0,87,0.00,,,0.00,meteohub,2013-12-15 08:52:00,
2013-12-15 02:57:00,21.4,18.1,30.25,NW,315,0.0,0.0,87,0.00,,,0.00,meteohub,2013-12-15 08:57:00,
2013-12-15 03:02:00,21.4,18.3,30.25,WSW,248,0.0,0.0,88,0.00,,,0.00,meteohub,2013-12-15 09:02:00,
2013-12-15 03:07:00,21.4,18.3,30.25,SSW,203,0.0,0.0,88,0.00,,,0.00,meteohub,2013-12-15 09:07:00,
2013-12-15 03:12:00,21.2,18.1,30.25,SSW,203,0.0,0.0,88,0.00,,,0.00,meteohub,2013-12-15 09:12:00,
2013-12-15 03:17:00,21.0,18.0,30.25,SW,225,0.0,0.0,88,0.00,,,0.00,meteohub,2013-12-15 09:17:00,
2013-12-15 03:22:00,21.0,18.0,30.24,SSW,203,0.0,0.0,88,0.00,,,0.00,meteohub,2013-12-15 09:22:00,
2013-12-15 03:27:00,21.0,18.0,30.24,SW,225,0.0,0.0,88,0.00,,,0.00,meteohub,2013-12-15 09:27:00,
2013-12-15 03:32:00,20.7,17.6,30.24,SW,225,0.0,0.0,88,0.00,,,0.00,meteohub,2013-12-15 09:32:00,
2013-12-15 03:37:00,20.3,17.2,30.24,SW,225,0.0,0.0,88,0.00,,,0.00,meteohub,2013-12-15 09:37:00,
2013-12-15 03:42:00,20.3,17.2,30.25,SW,225,0.0,0.0,88,0.00,,,0.00,meteohub,2013-12-15 09:42:00,
2013-12-15 03:47:00,20.3,17.2,30.25,West,270,0.0,0.0,88,0.00,,,0.00,meteohub,2013-12-15 09:47:00,
2013-12-15 03:52:00,20.3,17.2,30.25,West,270,0.0,0.0,88,0.00,,,0.00,meteohub,2013-12-15 09:52:00,
2013-12-15 03:57:00,20.3,17.2,30.25,SW,225,0.0,0.0,88,0.00,,,0.00,meteohub,2013-12-15 09:57:00,
2013-12-15 04:02:00,20.3,17.2,30.23,SW,225,0.0,0.0,88,0.00,,,0.00,meteohub,2013-12-15 10:02:00,
2013-12-15 04:07:00,19.9,16.9,30.23,SW,225,0.0,0.0,88,0.00,,,0.00,meteohub,2013-12-15 10:07:00,
2013-12-15 04:12:00,19.9,16.9,30.23,SW,225,0.0,0.0,88,0.00,,,0.00,meteohub,2013-12-15 10:12:00,
2013-12-15 04:17:00,19.8,16.7,30.24,WSW,248,0.0,0.0,88,0.00,,,0.00,meteohub,2013-12-15 10:17:00,
2013-12-15 04:22:00,19.6,16.5,30.23,WSW,248,0.0,0.0,88,0.00,,,0.00,meteohub,2013-12-15 10:22:00,
2013-12-15 04:27:00,19.6,16.5,30.23,WSW,248,0.0,0.0,88,0.00,,,0.00,meteohub,2013-12-15 10:27:00,
2013-12-15 04:32:00,19.6,16.5,30.23,SW,225,0.0,0.0,88,0.00,,,0.00,meteohub,2013-12-15 10:32:00,
2013-12-15 04:37:00,19.2,16.3,30.23,SW,225,0.0,0.0,88,0.00,,,0.00,meteohub,2013-12-15 10:37:00,
2013-12-15 04:42:00,19.0,16.2,30.23,SW,225,0.0,0.0,88,0.00,,,0.00,meteohub,2013-12-15 10:42:00,
2013-12-15 04:47:00,19.2,16.3,30.23,SW,225,0.0,0.0,88,0.00,,,0.00,meteohub,2013-12-15 10:47:00,
2013-12-15 04:52:00,18.9,16.0,30.23,SW,225,0.0,0.0,88,0.00,,,0.00,meteohub,2013-12-15 10:52:00,
2013-12-15 04:57:00,18.9,16.0,30.23,SW,225,0.0,0.0,88,0.00,,,0.00,meteohub,2013-12-15 10:57:00,
2013-12-15 05:02:00,18.9,16.0,30.23,SW,225,0.0,0.0,88,0.00,,,0.00,meteohub,2013-12-15 11:02:00,
2013-12-15 05:07:00,18.9,16.0,30.23,South,180,0.0,0.0,88,0.00,,,0.00,meteohub,2013-12-15 11:07:00,
2013-12-15 05:12:00,18.9,16.0,30.23,South,180,0.0,0.0,88,0.00,,,0.00,meteohub,2013-12-15 11:12:00,
2013-12-15 05:17:00,18.5,15.6,30.23,South,180,0.0,0.0,88,0.00,,,0.00,meteohub,2013-12-15 11:17:00,
2013-12-15 05:22:00,18.5,15.6,30.23,SW,225,0.0,0.0,88,0.00,,,0.00,meteohub,2013-12-15 11:22:00,
2013-12-15 05:27:00,18.3,15.4,30.23,South,180,0.0,0.0,88,0.00,,,0.00,meteohub,2013-12-15 11:27:00,
2013-12-15 05:32:00,18.1,15.4,30.23,South,180,0.0,0.0,89,0.00,,,0.00,meteohub,2013-12-15 11:32:00,
2013-12-15 05:37:00,18.1,15.4,30.23,South,180,0.0,0.0,89,0.00,,,0.00,meteohub,2013-12-15 11:37:00,
2013-12-15 05:42:00,18.1,15.4,30.22,South,180,0.0,0.0,89,0.00,,,0.00,meteohub,2013-12-15 11:42:00,
2013-12-15 05:47:00,18.1,15.4,30.22,South,180,0.0,0.0,89,0.00,,,0.00,meteohub,2013-12-15 11:47:00,
2013-12-15 05:52:00,18.1,15.4,30.22,North,0,0.0,0.0,89,0.00,,,0.00,meteohub,2013-12-15 11:52:00,
2013-12-15 05:57:00,17.8,15.1,30.22,NNW,338,0.0,0.0,89,0.00,,,0.00,meteohub,2013-12-15 11:57:00,
2013-12-15 06:02:00,17.8,15.1,30.24,NNW,338,0.0,0.0,89,0.00,,,0.00,meteohub,2013-12-15 12:02:00,
2013-12-15 06:07:00,17.8,15.1,30.24,NNW,338,0.0,0.0,89,0.00,,,0.00,meteohub,2013-12-15 12:07:00,
2013-12-15 06:12:00,17.4,14.5,30.24,NNE,23,0.0,0.0,88,0.00,,,0.00,meteohub,2013-12-15 12:12:00,
2013-12-15 06:17:00,17.4,14.5,30.24,NNE,23,0.0,0.0,88,0.00,,,0.00,meteohub,2013-12-15 12:17:00,
2013-12-15 06:22:00,17.4,14.5,30.23,NNW,338,0.0,0.0,88,0.00,,,0.00,meteohub,2013-12-15 12:22:00,
2013-12-15 06:27:00,17.4,14.5,30.23,NNE,23,0.0,0.0,88,0.00,,,0.00,meteohub,2013-12-15 12:27:00,
2013-12-15 06:32:00,17.4,14.5,30.23,NNE,23,0.0,0.0,88,0.00,,,0.00,meteohub,2013-12-15 12:32:00,
2013-12-15 06:37:00,17.4,14.5,30.23,NNE,23,0.0,0.0,88,0.00,,,0.00,meteohub,2013-12-15 12:37:00,
2013-12-15 06:42:00,17.1,14.2,30.24,NNE,23,0.0,0.0,88,0.00,,,0.00,meteohub,2013-12-15 12:42:00,
2013-12-15 06:47:00,17.1,14.2,30.24,West,270,0.0,0.0,88,0.00,,,0.00,meteohub,2013-12-15 12:47:00,
2013-12-15 06:52:00,16.9,14.0,30.24,West,270,0.0,0.0,88,0.00,,,0.00,meteohub,2013-12-15 12:52:00,
2013-12-15 06:57:00,16.7,13.8,30.24,West,270,0.0,0.0,88,0.00,,,0.00,meteohub,2013-12-15 12:57:00,
2013-12-15 07:02:00,16.7,13.8,30.23,West,270,0.0,0.0,88,0.00,,,0.00,meteohub,2013-12-15 13:02:00,
2013-12-15 07:07:00,16.7,13.8,30.23,West,270,0.0,0.0,88,0.00,,,0.00,meteohub,2013-12-15 13:07:00,
2013-12-15 07:12:00,16.7,13.8,30.23,West,270,0.0,0.0,88,0.00,,,0.00,meteohub,2013-12-15 13:12:00,
2013-12-15 07:17:00,16.7,13.8,30.23,South,180,0.0,0.0,88,0.00,,,0.00,meteohub,2013-12-15 13:17:00,
2013-12-15 07:22:00,16.7,13.8,30.25,South,180,0.0,0.0,88,0.00,,,0.00,meteohub,2013-12-15 13:22:00,
2013-12-15 07:27:00,16.7,14.0,30.25,SW,225,0.0,0.0,89,0.00,,,0.00,meteohub,2013-12-15 13:27:00,
2013-12-15 07:32:00,16.7,14.0,30.25,South,180,0.0,0.0,89,0.00,,,0.00,meteohub,2013-12-15 13:32:00,
2013-12-15 07:37:00,16.7,14.0,30.25,SSW,203,0.0,0.0,89,0.00,,,0.00,meteohub,2013-12-15 13:37:00,
2013-12-15 07:42:00,16.7,14.0,30.25,SSW,203,0.0,0.0,89,0.00,,,0.00,meteohub,2013-12-15 13:42:00,
2013-12-15 07:47:00,17.1,14.4,30.25,SW,225,0.0,0.0,89,0.00,,,0.00,meteohub,2013-12-15 13:47:00,
2013-12-15 07:52:00,16.9,14.2,30.25,SW,225,0.0,0.0,89,0.00,,,0.00,meteohub,2013-12-15 13:52:00,
2013-12-15 07:57:00,16.9,14.2,30.25,South,180,0.0,0.0,89,0.00,,,0.00,meteohub,2013-12-15 13:57:00,
2013-12-15 08:02:00,17.1,14.4,30.25,SSE,158,0.0,0.0,89,0.00,,,0.00,meteohub,2013-12-15 14:02:00,
2013-12-15 08:07:00,17.4,14.7,30.25,SSE,158,0.0,0.0,89,0.00,,,0.00,meteohub,2013-12-15 14:07:00,
2013-12-15 08:12:00,17.8,15.1,30.25,SE,135,0.0,0.0,89,0.00,,,0.00,meteohub,2013-12-15 14:12:00,
2013-12-15 08:17:00,18.1,15.6,30.25,South,180,0.0,0.0,90,0.00,,,0.00,meteohub,2013-12-15 14:17:00,
2013-12-15 08:22:00,18.9,16.3,30.25,South,180,0.0,0.0,90,0.00,,,0.00,meteohub,2013-12-15 14:22:00,
2013-12-15 08:27:00,19.6,17.1,30.24,SW,225,0.0,0.0,90,0.00,,,0.00,meteohub,2013-12-15 14:27:00,
2013-12-15 08:32:00,20.5,18.0,30.24,South,180,0.0,0.0,90,0.00,,,0.00,meteohub,2013-12-15 14:32:00,
2013-12-15 08:37:00,21.4,19.2,30.24,SW,225,0.0,0.0,91,0.00,,,0.00,meteohub,2013-12-15 14:37:00,
2013-12-15 08:42:00,22.5,20.3,30.24,SSW,203,0.0,0.0,91,0.00,,,0.00,meteohub,2013-12-15 14:42:00,
2013-12-15 08:47:00,22.8,20.7,30.24,South,180,0.0,0.0,91,0.00,,,0.00,meteohub,2013-12-15 14:47:00,
2013-12-15 08:52:00,23.4,21.2,30.24,South,180,0.0,0.0,91,0.00,,,0.00,meteohub,2013-12-15 14:52:00,
2013-12-15 08:57:00,23.9,21.7,30.23,SW,225,0.0,0.0,91,0.00,,,0.00,meteohub,2013-12-15 14:57:00,
2013-12-15 09:02:00,24.3,21.7,30.26,WSW,248,0.0,0.0,90,0.00,,,0.00,meteohub,2013-12-15 15:02:00,
2013-12-15 09:07:00,24.6,22.1,30.26,SSW,203,0.0,0.0,90,0.00,,,0.00,meteohub,2013-12-15 15:07:00,
2013-12-15 09:12:00,24.8,22.3,30.26,South,180,0.0,0.0,90,0.00,,,0.00,meteohub,2013-12-15 15:12:00,
2013-12-15 09:17:00,24.6,22.1,30.26,SSE,158,0.0,0.0,90,0.00,,,0.00,meteohub,2013-12-15 15:17:00,
2013-12-15 09:22:00,24.6,21.9,30.29,SW,225,0.0,0.0,89,0.00,,,0.00,meteohub,2013-12-15 15:22:00,
2013-12-15 09:27:00,24.6,21.9,30.29,SW,225,0.0,0.0,89,0.00,,,0.00,meteohub,2013-12-15 15:27:00,
2013-12-15 09:32:00,24.6,21.6,30.29,SW,225,0.0,0.0,88,0.00,,,0.00,meteohub,2013-12-15 15:32:00,
2013-12-15 09:37:00,24.8,21.7,30.29,South,180,0.0,0.0,88,0.00,,,0.00,meteohub,2013-12-15 15:37:00,
2013-12-15 09:42:00,25.3,22.3,30.29,SW,225,0.0,0.0,88,0.00,,,0.00,meteohub,2013-12-15 15:42:00,
2013-12-15 09:47:00,25.3,22.3,30.29,WSW,248,0.0,0.0,88,0.00,,,0.00,meteohub,2013-12-15 15:47:00,
2013-12-15 09:52:00,26.1,23.0,30.29,West,270,0.0,0.0,88,0.00,,,0.00,meteohub,2013-12-15 15:52:00,
2013-12-15 09:57:00,26.1,23.0,30.29,SSE,158,0.0,0.0,88,0.00,,,0.00,meteohub,2013-12-15 15:57:00,
2013-12-15 10:02:00,26.4,23.4,30.28,South,180,0.0,0.0,88,0.00,,,0.00,meteohub,2013-12-15 16:02:00,
2013-12-15 10:07:00,26.8,23.7,30.28,North,0,0.0,0.0,88,0.00,,,0.00,meteohub,2013-12-15 16:07:00,
2013-12-15 10:12:00,27.0,23.9,30.28,SSE,158,0.0,0.0,88,0.00,,,0.00,meteohub,2013-12-15 16:12:00,
2013-12-15 10:17:00,27.1,24.1,30.28,SW,225,0.0,0.0,88,0.00,,,0.00,meteohub,2013-12-15 16:17:00,
2013-12-15 10:22:00,27.9,24.8,30.28,SSE,158,0.0,0.0,88,0.00,,,0.00,meteohub,2013-12-15 16:22:00,
2013-12-15 10:27:00,27.9,24.4,30.28,SE,135,0.0,0.0,87,0.00,,,0.00,meteohub,2013-12-15 16:27:00,
2013-12-15 10:32:00,28.4,25.0,30.28,West,270,0.0,0.0,87,0.00,,,0.00,meteohub,2013-12-15 16:32:00,
2013-12-15 10:37:00,28.9,25.5,30.28,WSW,248,0.0,0.0,87,0.00,,,0.00,meteohub,2013-12-15 16:37:00,
2013-12-15 10:42:00,29.1,25.7,30.28,SW,225,0.0,0.0,87,0.00,,,0.00,meteohub,2013-12-15 16:42:00,
2013-12-15 10:47:00,29.3,25.7,30.28,SW,225,0.0,2.0,86,0.00,,,0.00,meteohub,2013-12-15 16:47:00,
2013-12-15 10:52:00,29.8,26.2,30.27,SW,225,0.0,2.0,86,0.00,,,0.00,meteohub,2013-12-15 16:52:00,
2013-12-15 10:57:00,30.4,26.8,30.27,South,180,3.0,3.0,86,0.00,,,0.00,meteohub,2013-12-15 16:57:00,
2013-12-15 11:02:00,30.6,27.0,30.25,SSW,203,0.0,3.0,86,0.00,,,0.00,meteohub,2013-12-15 17:02:00,
2013-12-15 11:07:00,31.1,27.3,30.25,SSW,203,0.0,3.0,86,0.00,,,0.00,meteohub,2013-12-15 17:07:00,
2013-12-15 11:12:00,31.1,27.1,30.25,WSW,248,0.0,3.0,85,0.00,,,0.00,meteohub,2013-12-15 17:12:00,
2013-12-15 11:17:00,31.5,27.5,30.25,South,180,0.0,0.0,85,0.00,,,0.00,meteohub,2013-12-15 17:17:00,
2013-12-15 11:22:00,32.0,28.0,30.25,South,180,0.0,0.0,85,0.00,,,0.00,meteohub,2013-12-15 17:22:00,
2013-12-15 11:27:00,32.5,28.6,30.25,SW,225,0.0,0.0,85,0.03,,,0.03,meteohub,2013-12-15 17:27:00,
2013-12-15 11:32:00,32.7,28.8,30.25,SW,225,0.0,0.0,85,0.03,,,0.03,meteohub,2013-12-15 17:32:00,
2013-12-15 11:37:00,33.6,29.3,30.25,SSW,203,0.0,0.0,84,0.03,,,0.03,meteohub,2013-12-15 17:37:00,
2013-12-15 11:42:00,34.0,29.7,30.23,South,180,0.0,0.0,84,0.03,,,0.03,meteohub,2013-12-15 17:42:00,
2013-12-15 11:47:00,34.2,29.5,30.23,SSE,158,0.0,0.0,83,0.03,,,0.03,meteohub,2013-12-15 17:47:00,
2013-12-15 11:52:00,34.5,29.8,30.23,South,180,0.0,0.0,83,0.03,,,0.03,meteohub,2013-12-15 17:52:00,
2013-12-15 11:57:00,34.9,30.2,30.23,South,180,0.0,0.0,83,0.03,,,0.03,meteohub,2013-12-15 17:57:00,
2013-12-15 12:02:00,35.4,30.6,30.21,South,180,0.0,0.0,82,0.03,,,0.03,meteohub,2013-12-15 18:02:00,
2013-12-15 12:07:00,35.4,30.6,30.21,South,180,0.0,0.0,82,0.05,,,0.05,meteohub,2013-12-15 18:07:00,
2013-12-15 12:12:00,36.3,30.7,30.21,SSE,158,0.0,0.0,80,0.05,,,0.05,meteohub,2013-12-15 18:12:00,
2013-12-15 12:17:00,36.9,30.9,30.21,South,180,0.0,0.0,79,0.05,,,0.05,meteohub,2013-12-15 18:17:00,
2013-12-15 12:22:00,37.0,31.1,30.20,WNW,293,0.0,3.0,79,0.08,,,0.08,meteohub,2013-12-15 18:22:00,
2013-12-15 12:27:00,37.4,31.5,30.20,SW,225,0.0,3.0,79,0.05,,,0.08,meteohub,2013-12-15 18:27:00,
2013-12-15 12:32:00,37.8,31.5,30.20,SSW,203,0.0,3.0,78,0.08,,,0.11,meteohub,2013-12-15 18:32:00,
2013-12-15 12:37:00,37.8,31.5,30.20,South,180,0.0,0.0,78,0.08,,,0.11,meteohub,2013-12-15 18:37:00,
2013-12-15 12:42:00,37.8,31.5,30.19,South,180,0.0,0.0,78,0.08,,,0.11,meteohub,2013-12-15 18:42:00,
2013-12-15 12:47:00,37.8,31.5,30.19,South,180,0.0,0.0,78,0.11,,,0.13,meteohub,2013-12-15 18:47:00,
2013-12-15 12:52:00,39.0,32.2,30.18,SSW,203,0.0,0.0,76,0.11,,,0.13,meteohub,2013-12-15 18:52:00,
2013-12-15 12:57:00,39.0,32.4,30.18,South,180,0.0,0.0,77,0.08,,,0.13,meteohub,2013-12-15 18:57:00,
2013-12-15 13:02:00,39.7,32.7,30.17,South,180,0.0,0.0,76,0.11,,,0.16,meteohub,2013-12-15 19:02:00,
2013-12-15 13:07:00,39.9,32.9,30.17,SW,225,0.0,0.0,76,0.11,,,0.16,meteohub,2013-12-15 19:07:00,
2013-12-15 13:12:00,40.5,33.1,30.17,WSW,248,0.0,0.0,75,0.11,,,0.16,meteohub,2013-12-15 19:12:00,
2013-12-15 13:17:00,40.6,33.1,30.17,SW,225,0.0,0.0,74,0.11,,,0.19,meteohub,2013-12-15 19:17:00,
2013-12-15 13:23:00,40.8,33.3,30.15,South,180,2.0,0.0,74,0.11,,,0.19,meteohub,2013-12-15 19:23:00,
2013-12-15 13:28:00,40.8,33.3,30.15,SW,225,0.0,5.0,74,0.08,,,0.19,meteohub,2013-12-15 19:28:00,
2013-12-15 13:33:00,41.5,33.6,30.15,WSW,248,0.0,5.0,73,0.08,,,0.19,meteohub,2013-12-15 19:33:00,
2013-12-15 13:38:00,41.5,33.6,30.15,SSW,203,0.0,5.0,73,0.11,,,0.22,meteohub,2013-12-15 19:38:00,
2013-12-15 13:43:00,41.7,33.4,30.14,South,180,4.0,0.0,72,0.08,,,0.22,meteohub,2013-12-15 19:43:00,
2013-12-15 13:47:00,42.1,33.8,30.14,WSW,248,4.0,4.0,72,0.08,,,0.22,meteohub,2013-12-15 19:47:00,
2013-12-15 13:52:00,42.3,33.8,30.14,SW,225,0.0,4.0,72,0.08,,,0.22,meteohub,2013-12-15 19:52:00,
2013-12-15 13:57:00,42.4,34.0,30.14,SW,225,0.0,4.0,72,0.06,,,0.22,meteohub,2013-12-15 19:57:00,
2013-12-15 14:02:00,42.6,33.8,30.15,WSW,248,0.0,4.0,71,0.08,,,0.24,meteohub,2013-12-15 20:02:00,
2013-12-15 14:07:00,42.8,33.6,30.15,WSW,248,10.0,10.0,70,0.08,,,0.24,meteohub,2013-12-15 20:07:00,
2013-12-15 14:12:00,42.8,33.6,30.15,WSW,248,5.0,10.0,70,0.06,,,0.24,meteohub,2013-12-15 20:12:00,
2013-12-15 14:17:00,43.0,33.8,30.15,SW,225,6.0,10.0,70,0.06,,,0.24,meteohub,2013-12-15 20:17:00,
2013-12-15 14:22:00,43.3,34.2,30.14,WSW,248,5.0,10.0,70,0.06,,,0.24,meteohub,2013-12-15 20:22:00,
2013-12-15 14:27:00,43.5,33.6,30.14,SW,225,5.0,12.0,68,0.08,,,0.27,meteohub,2013-12-15 20:27:00,
2013-12-15 14:32:00,43.3,33.4,30.14,SW,225,5.0,12.0,68,0.06,,,0.27,meteohub,2013-12-15 20:32:00,
2013-12-15 14:37:00,43.3,33.8,30.14,South,180,0.0,12.0,69,0.06,,,0.27,meteohub,2013-12-15 20:37:00,
2013-12-15 14:42:00,43.5,34.0,30.13,SSE,158,1.0,8.0,69,0.06,,,0.27,meteohub,2013-12-15 20:42:00,
2013-12-15 14:47:00,43.7,33.8,30.13,SW,225,4.0,8.0,68,0.06,,,0.27,meteohub,2013-12-15 20:47:00,
2013-12-15 14:52:00,43.5,33.6,30.13,WSW,248,0.0,4.0,68,0.03,,,0.27,meteohub,2013-12-15 20:52:00,
2013-12-15 14:57:00,43.7,33.8,30.13,SW,225,0.0,4.0,68,0.03,,,0.27,meteohub,2013-12-15 20:57:00,
2013-12-15 15:02:00,43.5,33.6,30.14,SW,225,0.0,4.0,68,0.03,,,0.27,meteohub,2013-12-15 21:02:00,
2013-12-15 15:07:00,43.5,33.6,30.14,SW,225,0.0,2.0,68,0.03,,,0.27,meteohub,2013-12-15 21:07:00,
2013-12-15 15:12:00,43.2,33.6,30.14,WSW,248,0.0,0.0,69,0.03,,,0.27,meteohub,2013-12-15 21:12:00,
2013-12-15 15:17:00,43.3,33.8,30.14,SSW,203,0.0,0.0,69,0.03,,,0.27,meteohub,2013-12-15 21:17:00,
2013-12-15 15:22:00,43.5,34.3,30.14,SW,225,0.0,4.0,70,0.00,,,0.27,meteohub,2013-12-15 21:22:00,
2013-12-15 15:27:00,43.5,34.3,30.14,WSW,248,0.0,4.0,70,0.00,,,0.27,meteohub,2013-12-15 21:27:00,
2013-12-15 15:32:00,43.5,34.3,30.14,SW,225,0.0,4.0,70,0.00,,,0.27,meteohub,2013-12-15 21:32:00,
2013-12-15 15:37:00,43.3,33.8,30.14,SE,135,0.0,0.0,69,0.00,,,0.27,meteohub,2013-12-15 21:37:00,
2013-12-15 15:42:00,43.3,34.2,30.12,SSE,158,0.0,0.0,70,0.00,,,0.27,meteohub,2013-12-15 21:42:00,
2013-12-15 15:47:00,42.8,33.6,30.12,SE,135,0.0,0.0,70,0.00,,,0.27,meteohub,2013-12-15 21:47:00,
2013-12-15 15:52:00,42.8,33.6,30.12,WSW,248,0.0,0.0,70,0.00,,,0.27,meteohub,2013-12-15 21:52:00,
2013-12-15 15:58:00,42.8,34.0,30.12,North,0,0.0,0.0,71,0.00,,,0.27,meteohub,2013-12-15 21:58:00,
2013-12-15 16:03:00,43.0,34.2,30.11,South,180,0.0,0.0,71,0.00,,,0.27,meteohub,2013-12-15 22:03:00,
2013-12-15 16:08:00,42.8,34.0,30.11,SW,225,0.0,0.0,71,0.00,,,0.27,meteohub,2013-12-15 22:08:00,
2013-12-15 16:13:00,42.4,33.6,30.11,SSW,203,0.0,0.0,71,0.00,,,0.27,meteohub,2013-12-15 22:13:00,
2013-12-15 16:18:00,42.6,34.2,30.11,South,180,0.0,0.0,72,0.00,,,0.27,meteohub,2013-12-15 22:18:00,
2013-12-15 16:23:00,42.6,34.2,30.12,SW,225,0.0,0.0,72,0.00,,,0.27,meteohub,2013-12-15 22:23:00,
2013-12-15 16:28:00,42.3,33.8,30.12,SW,225,0.0,0.0,72,0.00,,,0.27,meteohub,2013-12-15 22:28:00,
2013-12-15 16:33:00,42.3,33.8,30.12,SW,225,0.0,0.0,72,0.00,,,0.27,meteohub,2013-12-15 22:33:00,
2013-12-15 16:38:00,42.3,33.8,30.12,WSW,248,0.0,0.0,72,0.00,,,0.27,meteohub,2013-12-15 22:38:00,
2013-12-15 16:43:00,42.1,33.8,30.12,WSW,248,0.0,0.0,72,0.00,,,0.27,meteohub,2013-12-15 22:43:00,
2013-12-15 16:48:00,42.1,33.8,30.12,SSW,203,0.0,0.0,72,0.00,,,0.27,meteohub,2013-12-15 22:48:00,
2013-12-15 16:53:00,41.9,33.6,30.12,South,180,0.0,0.0,72,0.00,,,0.27,meteohub,2013-12-15 22:53:00,
2013-12-15 16:58:00,41.5,33.3,30.12,SSW,203,0.0,0.0,72,0.00,,,0.27,meteohub,2013-12-15 22:58:00,
2013-12-15 17:03:00,41.5,33.3,30.09,SSW,203,0.0,0.0,72,0.00,,,0.27,meteohub,2013-12-15 23:03:00,
2013-12-15 17:08:00,41.4,33.4,30.09,SW,225,0.0,0.0,73,0.00,,,0.27,meteohub,2013-12-15 23:08:00,
2013-12-15 17:13:00,41.0,33.1,30.09,SW,225,0.0,0.0,73,0.00,,,0.27,meteohub,2013-12-15 23:13:00,
2013-12-15 17:18:00,40.6,32.7,30.09,South,180,0.0,0.0,73,0.00,,,0.27,meteohub,2013-12-15 23:18:00,
2013-12-15 17:23:00,40.6,32.7,30.08,SSW,203,0.0,0.0,73,0.00,,,0.27,meteohub,2013-12-15 23:23:00,
2013-12-15 17:28:00,40.5,32.9,30.08,South,180,0.0,0.0,74,0.00,,,0.27,meteohub,2013-12-15 23:28:00,
2013-12-15 17:33:00,40.1,32.5,30.09,SSE,158,0.0,0.0,74,0.00,,,0.27,meteohub,2013-12-15 23:33:00,
2013-12-15 17:38:00,39.9,32.4,30.09,South,180,0.0,0.0,74,0.00,,,0.27,meteohub,2013-12-15 23:38:00,
2013-12-15 17:43:00,39.9,32.4,30.08,SE,135,0.0,0.0,74,0.00,,,0.27,meteohub,2013-12-15 23:43:00,
2013-12-15 17:48:00,39.7,32.5,30.08,SE,135,0.0,0.0,75,0.00,,,0.27,meteohub,2013-12-15 23:48:00,
2013-12-15 17:53:00,39.4,31.8,30.08,East,90,0.0,0.0,74,0.00,,,0.27,meteohub,2013-12-15 23:53:00,
2013-12-15 17:58:00,39.0,31.8,30.08,ESE,113,0.0,0.0,75,0.00,,,0.27,meteohub,2013-12-15 23:58:00,
2013-12-15 18:03:00,38.8,31.6,30.08,ESE,113,0.0,0.0,75,0.00,,,0.27,meteohub,2013-12-16 00:03:00,
2013-12-15 18:08:00,38.8,31.6,30.08,ESE,113,0.0,0.0,75,0.00,,,0.27,meteohub,2013-12-16 00:08:00,
2013-12-15 18:13:00,37.6,30.4,30.08,SSE,158,0.0,0.0,75,0.00,,,0.27,meteohub,2013-12-16 00:13:00,
2013-12-15 18:18:00,37.2,30.0,30.09,SSE,158,0.0,0.0,75,0.00,,,0.27,meteohub,2013-12-16 00:18:00,
2013-12-15 18:23:00,36.9,30.0,30.11,SSE,158,0.0,0.0,76,0.00,,,0.27,meteohub,2013-12-16 00:23:00,
2013-12-15 18:28:00,36.3,29.5,30.11,WSW,248,0.0,0.0,76,0.00,,,0.27,meteohub,2013-12-16 00:28:00,
2013-12-15 18:33:00,36.1,29.3,30.11,WSW,248,0.0,0.0,76,0.00,,,0.27,meteohub,2013-12-16 00:33:00,
2013-12-15 18:38:00,35.6,29.1,30.12,WSW,248,0.0,0.0,77,0.00,,,0.27,meteohub,2013-12-16 00:38:00,
2013-12-15 18:43:00,35.2,29.1,30.14,West,270,0.0,0.0,78,0.00,,,0.27,meteohub,2013-12-16 00:43:00,
2013-12-15 18:48:00,35.1,28.9,30.14,WSW,248,0.0,0.0,78,0.00,,,0.27,meteohub,2013-12-16 00:48:00,
2013-12-15 18:53:00,35.1,29.1,30.14,SSW,203,0.0,0.0,79,0.00,,,0.27,meteohub,2013-12-16 00:53:00,
2013-12-15 18:58:00,35.4,29.8,30.14,SSW,203,0.0,0.0,80,0.00,,,0.27,meteohub,2013-12-16 00:58:00,
2013-12-15 19:03:00,35.8,30.6,30.14,South,180,0.0,0.0,81,0.00,,,0.27,meteohub,2013-12-16 01:03:00,
2013-12-15 19:08:00,35.8,30.6,30.14,South,180,0.0,0.0,81,0.00,,,0.27,meteohub,2013-12-16 01:08:00,
2013-12-15 19:13:00,36.1,30.9,30.14,SSW,203,0.0,0.0,81,0.00,,,0.27,meteohub,2013-12-16 01:13:00,
2013-12-15 19:18:00,36.1,30.9,30.14,South,180,0.0,0.0,81,0.00,,,0.27,meteohub,2013-12-16 01:18:00,
2013-12-15 19:23:00,35.8,30.6,30.14,South,180,0.0,0.0,81,0.00,,,0.27,meteohub,2013-12-16 01:23:00,
2013-12-15 19:28:00,35.8,30.6,30.14,South,180,0.0,0.0,81,0.00,,,0.27,meteohub,2013-12-16 01:28:00,
2013-12-15 19:33:00,35.8,30.6,30.14,SW,225,0.0,0.0,81,0.00,,,0.27,meteohub,2013-12-16 01:33:00,
2013-12-15 19:38:00,36.1,30.9,30.14,South,180,0.0,0.0,81,0.00,,,0.27,meteohub,2013-12-16 01:38:00,
2013-12-15 19:43:00,36.3,31.1,30.13,SSW,203,0.0,0.0,81,0.00,,,0.27,meteohub,2013-12-16 01:43:00,
2013-12-15 19:48:00,36.5,31.3,30.13,SW,225,0.0,0.0,81,0.00,,,0.27,meteohub,2013-12-16 01:48:00,
2013-12-15 19:53:00,36.5,31.3,30.13,SW,225,0.0,0.0,81,0.00,,,0.27,meteohub,2013-12-16 01:53:00,
2013-12-15 19:58:00,36.5,31.3,30.13,SSW,203,0.0,0.0,81,0.00,,,0.27,meteohub,2013-12-16 01:58:00,
2013-12-15 20:03:00,36.3,31.1,30.13,WSW,248,0.0,0.0,81,0.00,,,0.27,meteohub,2013-12-16 02:03:00,
2013-12-15 20:08:00,36.3,31.1,30.13,South,180,0.0,0.0,81,0.00,,,0.27,meteohub,2013-12-16 02:08:00,
2013-12-15 20:13:00,36.1,30.9,30.13,WSW,248,0.0,0.0,81,0.00,,,0.27,meteohub,2013-12-16 02:13:00,
2013-12-15 20:18:00,35.8,30.6,30.13,SSE,158,0.0,0.0,81,0.00,,,0.27,meteohub,2013-12-16 02:18:00,
2013-12-15 20:23:00,35.6,30.4,30.14,South,180,0.0,0.0,81,0.00,,,0.27,meteohub,2013-12-16 02:23:00,
2013-12-15 20:28:00,35.6,30.4,30.14,WSW,248,0.0,0.0,81,0.00,,,0.27,meteohub,2013-12-16 02:28:00,
2013-12-15 20:33:00,35.4,30.2,30.14,WSW,248,0.0,0.0,81,0.00,,,0.27,meteohub,2013-12-16 02:33:00,
2013-12-15 20:38:00,35.1,29.8,30.14,WSW,248,0.0,0.0,81,0.00,,,0.27,meteohub,2013-12-16 02:38:00,
2013-12-15 20:44:00,34.7,29.1,30.14,WSW,248,0.0,0.0,80,0.00,,,0.27,meteohub,2013-12-16 02:44:00,
2013-12-15 20:49:00,34.7,29.5,30.14,SSE,158,0.0,0.0,81,0.00,,,0.27,meteohub,2013-12-16 02:49:00,
2013-12-15 20:54:00,34.3,29.1,30.14,ESE,113,0.0,0.0,81,0.00,,,0.27,meteohub,2013-12-16 02:54:00,
2013-12-15 20:59:00,34.2,28.9,30.14,SE,135,0.0,0.0,81,0.00,,,0.27,meteohub,2013-12-16 02:59:00,
2013-12-15 21:04:00,34.3,29.5,30.13,SE,135,0.0,0.0,82,0.00,,,0.27,meteohub,2013-12-16 03:04:00,
2013-12-15 21:09:00,34.2,29.3,30.13,SE,135,0.0,0.0,82,0.00,,,0.27,meteohub,2013-12-16 03:09:00,
2013-12-15 21:14:00,34.3,29.5,30.13,ESE,113,0.0,0.0,82,0.00,,,0.27,meteohub,2013-12-16 03:14:00,
2013-12-15 21:19:00,34.3,29.5,30.13,South,180,0.0,0.0,82,0.00,,,0.27,meteohub,2013-12-16 03:19:00,
2013-12-15 21:24:00,34.2,29.3,30.09,SE,135,0.0,0.0,82,0.00,,,0.27,meteohub,2013-12-16 03:24:00,
2013-12-15 21:29:00,34.0,29.1,30.09,SW,225,0.0,0.0,82,0.00,,,0.27,meteohub,2013-12-16 03:29:00,
2013-12-15 21:34:00,34.0,29.1,30.09,SE,135,0.0,0.0,82,0.00,,,0.27,meteohub,2013-12-16 03:34:00,
2013-12-15 21:39:00,33.6,28.8,30.09,SW,225,0.0,0.0,82,0.00,,,0.27,meteohub,2013-12-16 03:39:00,
2013-12-15 21:44:00,33.4,28.8,30.09,WSW,248,0.0,0.0,83,0.00,,,0.27,meteohub,2013-12-16 03:44:00,
2013-12-15 21:49:00,33.3,28.4,30.09,SSE,158,0.0,0.0,82,0.00,,,0.27,meteohub,2013-12-16 03:49:00,
2013-12-15 21:54:00,32.9,28.0,30.09,SE,135,0.0,0.0,82,0.00,,,0.27,meteohub,2013-12-16 03:54:00,
2013-12-15 21:59:00,32.9,28.0,30.09,SE,135,0.0,0.0,82,0.00,,,0.27,meteohub,2013-12-16 03:59:00,
2013-12-15 22:04:00,33.3,28.6,30.10,SE,135,0.0,0.0,83,0.00,,,0.27,meteohub,2013-12-16 04:04:00,
2013-12-15 22:09:00,33.4,29.1,30.09,SE,135,0.0,0.0,84,0.00,,,0.27,meteohub,2013-12-16 04:09:00,
2013-12-15 22:14:00,33.8,29.5,30.09,WSW,248,0.0,0.0,84,0.00,,,0.27,meteohub,2013-12-16 04:14:00,
2013-12-15 22:19:00,33.4,28.8,30.09,SW,225,0.0,0.0,83,0.00,,,0.27,meteohub,2013-12-16 04:19:00,
2013-12-15 22:24:00,33.1,28.4,30.09,SW,225,0.0,0.0,83,0.00,,,0.27,meteohub,2013-12-16 04:24:00,
2013-12-15 22:29:00,32.9,28.2,30.09,South,180,0.0,0.0,83,0.00,,,0.27,meteohub,2013-12-16 04:29:00,
2013-12-15 22:34:00,32.7,28.2,30.09,SW,225,0.0,0.0,83,0.00,,,0.27,meteohub,2013-12-16 04:34:00,
2013-12-15 22:39:00,32.7,28.4,30.09,SW,225,0.0,0.0,84,0.00,,,0.27,meteohub,2013-12-16 04:39:00,
2013-12-15 22:44:00,32.9,28.6,30.09,SW,225,0.0,0.0,84,0.00,,,0.27,meteohub,2013-12-16 04:44:00,
2013-12-15 22:49:00,32.9,28.6,30.09,SSE,158,0.0,0.0,84,0.00,,,0.27,meteohub,2013-12-16 04:49:00,
2013-12-15 22:54:00,32.9,28.6,30.09,WSW,248,0.0,0.0,84,0.00,,,0.27,meteohub,2013-12-16 04:54:00,
2013-12-15 22:59:00,32.7,28.4,30.08,WSW,248,0.0,0.0,84,0.00,,,0.27,meteohub,2013-12-16 04:59:00,
2013-12-15 23:01:00,32.7,28.4,30.08,WSW,248,0.0,0.0,84,0.00,,,0.27,meteohub,2013-12-16 05:01:00,
2013-12-15 23:02:00,32.7,28.4,30.08,SSW,203,0.0,0.0,84,0.00,,,0.27,meteohub,2013-12-16 05:02:00,
2013-12-15 23:03:00,32.7,28.4,30.08,SSW,203,0.0,0.0,84,0.00,,,0.27,meteohub,2013-12-16 05:03:00,
2013-12-15 23:08:00,32.7,28.4,30.08,WSW,248,0.0,0.0,84,0.00,,,0.27,meteohub,2013-12-16 05:08:00,
2013-12-15 23:13:00,32.9,28.6,30.08,SSW,203,0.0,0.0,84,0.00,,,0.27,meteohub,2013-12-16 05:13:00,
2013-12-15 23:18:00,32.7,28.8,30.08,SE,135,0.0,0.0,85,0.00,,,0.27,meteohub,2013-12-16 05:18:00,
2013-12-15 23:23:00,33.3,29.3,30.08,SW,225,0.0,0.0,85,0.00,,,0.27,meteohub,2013-12-16 05:23:00,
2013-12-15 23:28:00,33.4,29.5,30.08,SW,225,0.0,0.0,85,0.00,,,0.27,meteohub,2013-12-16 05:28:00,
2013-12-15 23:33:00,34.0,30.0,30.08,SSW,203,0.0,0.0,85,0.00,,,0.27,meteohub,2013-12-16 05:33:00,
2013-12-15 23:38:00,34.3,30.6,30.07,SSW,203,0.0,0.0,86,0.00,,,0.27,meteohub,2013-12-16 05:38:00,
2013-12-15 23:43:00,34.9,31.1,30.07,SW,225,0.0,0.0,86,0.00,,,0.27,meteohub,2013-12-16 05:43:00,
2013-12-15 23:48:00,35.2,31.1,30.07,SW,225,0.0,0.0,85,0.00,,,0.27,meteohub,2013-12-16 05:48:00,
2013-12-15 23:53:00,35.6,31.5,30.07,South,180,0.0,0.0,85,0.00,,,0.27,meteohub,2013-12-16 05:53:00,
2013-12-15 23:58:00,36.3,32.2,30.07,SW,225,0.0,0.0,85,0.00,,,0.27,meteohub,2013-12-16 05:58:00,